KBIL METAR and TAF | Updated Today

KBIL METAR

Billings Logan International Airport

Observation time: 11 min. ago

KBIL 261453Z 20004KT 10SM CLR 13/06 A3044 RMK AO2 SLP296 T01330061 50002

Need help? Read our tutorial on how to read METARs or read the parsed version below.

Billings Logan International Airport (KBIL) METAR

  • Weather conditions on Sun, 26 Jun 2022 14:53:00 +0000 (11 min. ago):
  • Present conditions: Dry
  • Clouds: Clear skies
  • Visibility: 16093 meters
  • Wind: 200 degrees at 4 knots
  • Temperature: 13 celsius
  • Dew point: 6 celsius
  • Pressure: 30.44 inHg
  • Remarks: AO2 SLP296 T01330061 50002


Useful to know...

KBIL TAF

Billings Logan International Airport

KBIL 261415Z 2614/2712 VRB06KT P6SM FEW100 FM261800 10008KT P6SM FEW100 FM270700 26006KT P6SM SKC
Observation time: 49 min. ago
Need help? Read our tutorial on how to read TAFs or read the parsed version below.

Parsed version of TAF for Billings Logan International Airport (KBIL)

  • From 26 June at 14:00 UTC, to day 27 of the month at 12:00 UTC
  • Clouds: A few at 3048 meters
  • Wind: Variable at 6
  • From day 26 of the month at 18:00 UTC
  • Clouds: A few at 3048 meters
  • Wind: 100 degrees at 8
  • From day 27 of the month at 07:00 UTC
  • Clouds: No significant changes expected
  • Wind: 260 degrees at 6

Airports near KBIL

KRPX Weather
Region: Roundup

Roundup Airport

Not found in our database